Lakewood, CO

6:44 PM MST on February 06, 2016 (GMT -0700)
Belmar Gardens | | Change Station
CLOSE
Current Station
Personal Weather Station
Location: Lakewood, CO
Elevation: 5568 ft
Nearby Weather Stations

Elev 5568 ft 39.70 °N, 105.10 °W | Updated 2 days ago

Cloudy
Cloudy
34 °F
Feels Like 27 °F
N
8
Wind Variable Wind from SSW
Gusts 12 mph

Today
High -- | Low -- °F
--% Chance of Precip.
Yesterday
High -- | Low -- °F
Precip. -- in
Pressure 30.17 in
Visibility 10.0 miles
Clouds Scattered Clouds 12000 ft
Mostly Cloudy 22000 ft
Windchill 27 °F
Dew Point 21 °F
Humidity 57%
Rainfall in
Snow Depth Not available.
7:03 AM 5:25 PM
Waning Crescent, 3% visible
METAR KAPA 070053Z 24012KT 10SM SCT120 BKN220 07/M08 A3011 RMK AO2 SLP215 T00671078
Pressure 30.17 in
Visibility 10.0 miles
Clouds Scattered Clouds 12000 ft
Mostly Cloudy 22000 ft
Windchill 27 °F
Dew Point 21 °F
Humidity 57%
Rainfall in
Snow Depth Not available.
7:03 AM 5:25 PM
Waning Crescent, 3% visible
METAR KAPA 070053Z 24012KT 10SM SCT120 BKN220 07/M08 A3011 RMK AO2 SLP215 T00671078

10-Day Weather Forecast

Almanac

Astronomy

Feb. 06, 2016 Rise Set
Actual Time
Civil Twilight
Nautical Twilight
Astronomical Twilight
Moon
Length of Visible Light
Length of Day
Tomorrow will be .
, % of the Moon is Illuminated

Today's Extremes

State Highs State Lows

Community

WunderPhotos

Upload Photos

1,891,123 photos uploaded!

WunderBlog® & News

Nearby

Air Quality

  Air Quality AQ Index Pollutant
Not available.

Snow Depth

Station Depth Elevation

Earthquake Activity

City Distance Mag. Time & Date
Minimum magnitude displayed is 2.5.

Coastal Water Temperatures

Place Temperature

Stations

Nearby Weather Stations

Station Location Temp. Windchill Dew Point Humidity Wind Precip. Elev Updated Type
                   

Watches & Warnings

There are currently no watches in effect.